Latest Weather Observations for Giles*

IDW60801

Issued at 9:04 am WST Friday 24 February 2017 (issued every 30 minutes, with the page automatically refreshed every 10 minutes)

About weather observations | Map of weather stations | Latest weather observations for WA | Other Formats
Station Details ID: 013017 Name: GILES METEOROLOGICAL OFFICE Lat: -25.03 Lon: 128.30 Height: 598.0 m
Data from the previous 72 hours. | See also: Recent months at Giles*

* Giles observations are collected in the South Australia time zone, which includes daylight saving in the summer period. Therefore, Rain since 9am value is with respect to South Australia local time.

Date/Time
WST
Temp
°C
App
Temp
°C
Dew
Point
°C
Rel
Hum
%
Delta-T
°C
Wind Press
QNH
hPa
Press
MSL
hPa
Rain since
9am
mm
Dir  Spd
km/h
Gust
km/h
Spd
kts
Gust
kts
24/08:30am 30.0 24.5 5.7 21 13.1 ENE 24 33 13 18 1022.4 1017.8 0.0
24/08:00am 28.7 21.9 5.1 22 12.5 E 30 41 16 22 1022.2 1017.6 0.0
24/07:30am 28.1 20.4 5.3 23 12.1 E 35 48 19 26 1021.9 1017.3 0.0
24/07:11am 27.5 21.2 5.7 25 11.6 E 28 46 15 25 1021.8 1017.2 0.0
24/07:00am 26.7 21.1 5.5 25 11.2 E 24 37 13 20 1021.7 1017.1 0.0
24/06:30am 24.1 20.4 6.5 32 9.3 ESE 15 24 8 13 1021.6 1017.0 0.2
24/06:00am 22.0 18.8 7.0 38 7.9 SE 13 20 7 11 1021.5 1016.8 -
24/05:30am 20.8 17.1 6.3 39 7.5 SE 15 19 8 10 1021.2 1016.5 -
24/05:00am 21.7 16.9 5.8 35 8.2 ESE 20 26 11 14 1020.7 1016.1 -
24/04:30am 22.1 17.3 5.6 34 8.5 ESE 20 28 11 15 1020.3 1015.7 -
24/04:00am 22.6 17.8 5.5 33 8.8 ESE 20 26 11 14 1020.0 1015.3 -
24/03:30am 23.2 18.0 5.4 31 9.2 ESE 22 30 12 16 1019.7 1015.0 -
24/03:00am 24.0 17.2 5.3 30 9.7 ESE 30 39 16 21 1019.6 1014.9 -
24/02:30am 24.3 17.9 5.2 29 9.9 ESE 28 37 15 20 1019.6 1014.9 -
24/02:00am 24.1 18.5 5.4 30 9.7 ESE 24 35 13 19 1019.5 1014.8 -
24/01:30am 24.4 18.8 5.4 29 9.9 ESE 24 32 13 17 1019.6 1014.9 -
24/01:00am 24.8 19.2 5.5 29 10.1 ESE 24 32 13 17 1019.6 1014.9 -
24/12:30am 24.9 20.1 5.6 29 10.1 ESE 20 30 11 16 1019.8 1015.1 0.0
24/12:00am 25.2 20.6 5.8 28 10.2 ESE 19 24 10 13 1019.8 1015.1 -
 
Date/Time
WST
Temp
°C
App
Temp
°C
Dew
Point
°C
Rel
Hum
%
Delta-T
°C
Wind Press
QNH
hPa
Press
MSL
hPa
Rain since
9am
mm
Dir  Spd
km/h
Gust
km/h
Spd
kts
Gust
kts
23/11:30pm 25.8 21.0 5.7 27 10.6 ESE 20 28 11 15 1019.9 1015.2 -
23/11:00pm 25.9 21.8 6.2 28 10.5 ESE 17 20 9 11 1020.0 1015.3 -
23/10:30pm 26.4 22.7 6.1 27 10.8 ESE 15 19 8 10 1020.1 1015.5 -
23/10:00pm 27.5 23.3 5.7 25 11.6 SE 17 24 9 13 1020.1 1015.5 -
23/09:30pm 28.3 23.1 5.4 23 12.2 SE 22 32 12 17 1019.9 1015.2 -
23/09:00pm 29.1 22.7 5.0 21 12.8 SE 28 39 15 21 1019.6 1014.9 -
23/08:30pm 29.7 24.3 4.6 20 13.3 SE 22 37 12 20 1019.3 1014.6 -
23/08:00pm 30.0 25.1 4.2 19 13.6 SE 19 28 10 15 1018.6 1014.0 -
23/07:30pm 30.2 26.0 1.4 15 14.5 E 13 17 7 9 1018.0 1013.3 -
23/07:00pm 30.8 27.1 2.4 16 14.6 E 11 15 6 8 1017.7 1013.0 -
23/06:30pm 31.3 27.5 2.0 15 15.0 ESE 11 13 6 7 1017.4 1012.7 0.0
23/06:00pm 33.1 29.1 0.8 13 16.4 SE 11 17 6 9 1016.9 1012.2 -
23/05:30pm 34.8 31.0 -0.4 10 17.7 ESE 9 15 5 8 1016.6 1011.9 -
23/05:00pm 35.3 31.9 1.8 12 17.5 SE 9 17 5 9 1016.4 1011.7 -
23/04:30pm 35.5 31.2 1.1 11 17.8 NE 13 20 7 11 1016.3 1011.6 -
23/04:00pm 35.4 31.1 0.9 11 17.8 SE 13 20 7 11 1016.2 1011.5 -
23/03:30pm 35.9 30.7 0.0 10 18.3 ENE 17 24 9 13 1016.2 1011.5 -
23/03:00pm 36.3 31.0 -0.7 9 18.7 SE 17 28 9 15 1016.2 1011.5 -
23/02:30pm 35.9 30.1 -1.4 9 18.6 SE 19 26 10 14 1016.4 1011.7 -
23/02:00pm 35.6 31.7 0.9 11 17.9 NNE 11 19 6 10 1016.7 1012.0 -
23/01:30pm 35.6 31.2 0.1 10 18.1 ENE 13 20 7 11 1017.0 1012.4 -
23/01:00pm 35.4 29.9 -2.0 9 18.4 NE 17 28 9 15 1017.4 1012.7 -
23/12:30pm 35.2 29.8 -1.6 9 18.2 ENE 17 26 9 14 1017.6 1012.9 0.2
23/12:00pm 34.0 29.2 0.1 11 17.1 E 15 30 8 16 1017.8 1013.1 -
23/11:30am 34.5 29.0 0.6 11 17.3 E 19 32 10 17 1018.1 1013.4 -
23/11:00am 33.7 28.3 2.2 13 16.4 E 20 32 11 17 1018.4 1013.7 -
23/10:30am 32.5 26.2 1.7 14 15.8 ESE 24 41 13 22 1018.8 1014.2 -
23/10:00am 30.9 25.2 2.6 16 14.6 E 22 35 12 19 1019.1 1014.4 -
23/09:30am 30.2 23.3 2.5 17 14.2 ESE 28 28 15 15 1019.3 1014.6 -
23/08:30am 28.4 22.3 2.9 19 13.0 ESE 24 35 13 19 1019.7 1015.0 0.0
23/08:00am 27.7 22.1 3.2 20 12.5 ESE 22 33 12 18 1019.5 1014.8 0.0
23/07:30am 25.1 19.0 2.5 23 11.2 ESE 24 33 13 18 1019.3 1014.6 0.0
23/07:00am 24.2 18.1 2.5 24 10.7 ESE 24 32 13 17 1018.9 1014.3 0.0
23/06:30am 22.0 17.8 3.7 30 9.1 ESE 15 20 8 11 1018.8 1014.2 0.0
23/06:00am 20.4 16.2 4.0 34 8.1 SE 15 20 8 11 1018.6 1014.0 0.0
23/05:30am 18.6 15.0 5.2 41 6.7 SE 13 15 7 8 1018.3 1013.6 0.0
23/05:00am 18.8 15.6 5.2 40 6.8 SE 11 15 6 8 1018.1 1013.4 0.0
23/04:30am 19.2 15.7 5.3 40 7.0 SE 13 15 7 8 1017.8 1013.1 0.0
23/04:00am 19.7 17.0 5.7 40 7.1 SE 9 11 5 6 1017.6 1012.9 0.0
23/03:30am 20.4 16.9 5.5 37 7.6 SE 13 17 7 9 1017.3 1012.6 0.0
23/03:00am 20.5 16.4 6.1 39 7.4 SE 17 20 9 11 1017.0 1012.4 0.0
23/02:30am 20.3 17.1 6.9 41 7.0 SE 13 15 7 8 1016.8 1012.1 0.0
23/02:00am 20.9 17.7 6.7 39 7.4 SE 13 17 7 9 1016.6 1011.9 0.0
23/01:30am 21.7 18.1 6.6 37 7.9 SE 15 17 8 9 1016.6 1011.9 0.0
23/01:00am 22.5 18.8 6.5 35 8.4 SE 15 17 8 9 1016.7 1012.0 0.0
23/12:30am 23.5 19.4 6.2 32 9.1 SE 17 20 9 11 1016.9 1012.2 0.0
23/12:00am 24.1 20.0 6.0 31 9.5 SE 17 20 9 11 1016.9 1012.2 0.0
 
Date/Time
WST
Temp
°C
App
Temp
°C
Dew
Point
°C
Rel
Hum
%
Delta-T
°C
Wind Press
QNH
hPa
Press
MSL
hPa
Rain since
9am
mm
Dir  Spd
km/h
Gust
km/h
Spd
kts
Gust
kts
22/11:30pm 24.7 20.5 5.9 30 9.9 SE 17 24 9 13 1017.3 1012.6 0.0
22/11:00pm 25.0 20.2 5.5 28 10.2 SSE 20 28 11 15 1017.1 1012.5 0.0
22/10:30pm 25.6 20.8 5.4 27 10.6 SSE 20 30 11 16 1017.4 1012.7 0.0
22/10:00pm 26.0 21.2 5.5 27 10.8 SSE 20 28 11 15 1017.4 1012.7 0.0
22/09:30pm 26.6 22.0 5.4 25 11.2 SSE 19 30 10 16 1017.3 1012.6 0.0
22/09:00pm 27.0 22.4 5.5 25 11.4 SSE 19 24 10 13 1017.0 1012.4 0.0
22/08:30pm 27.7 22.9 4.9 23 12.0 SSE 19 24 10 13 1016.7 1012.0 0.0
22/08:00pm 28.2 23.5 5.2 23 12.2 SSE 19 24 10 13 1016.4 1011.7 0.0
22/07:30pm 29.1 24.2 5.1 21 12.8 S 20 28 11 15 1015.9 1011.2 0.0
22/07:00pm 30.0 24.3 4.9 20 13.4 S 24 37 13 20 1015.3 1010.6 0.0
22/06:30pm 31.0 25.2 4.6 19 14.1 S 24 33 13 18 1014.7 1010.0 0.0
22/06:00pm 32.0 25.9 5.0 18 14.6 S 26 35 14 19 1014.2 1009.5 0.0
22/05:30pm 33.3 28.0 5.0 17 15.4 S 22 32 12 17 1013.6 1008.9 0.0
22/05:00pm 34.4 29.5 5.3 16 16.0 S 20 30 11 16 1013.3 1008.6 0.0
22/04:30pm 35.2 30.2 4.7 15 16.7 SSW 20 28 11 15 1013.1 1008.4 0.0
22/04:00pm 35.7 30.8 5.1 15 16.9 S 20 30 11 16 1012.9 1008.2 0.0
22/03:30pm 35.9 30.8 4.1 14 17.3 S 20 37 11 20 1012.9 1008.2 0.0
22/03:00pm 36.2 31.8 4.5 14 17.4 SW 17 26 9 14 1012.8 1008.1 0.0
22/02:30pm 35.9 32.7 5.2 15 17.0 S 11 19 6 10 1012.8 1008.1 0.0
22/02:00pm 36.0 31.7 5.1 14 17.1 SW 17 28 9 15 1013.0 1008.3 0.0
22/01:30pm 35.7 32.5 6.7 16 16.4 SW 13 22 7 12 1013.1 1008.4 0.0
22/01:00pm 34.7 31.6 7.2 18 15.6 WSW 13 20 7 11 1013.3 1008.6 0.0
22/12:30pm 34.2 31.2 9.2 21 14.6 S 15 22 8 12 1013.6 1008.9 0.0
22/12:00pm 33.8 32.1 9.8 23 14.1 ESE 9 15 5 8 1014.1 1009.4 0.0
22/11:30am 32.6 30.5 9.9 24 13.3 SE 11 20 6 11 1014.6 1009.9 0.0
22/11:00am 32.8 30.4 10.2 25 13.3 S 13 19 7 10 1014.8 1010.1 0.0
22/10:30am 32.0 29.7 10.4 26 12.7 SE 13 20 7 11 1015.3 1010.6 0.0
22/10:00am 31.0 28.7 10.3 27 12.1 ESE 13 24 7 13 1015.7 1011.0 0.0
22/09:30am 29.8 27.1 11.6 32 10.8 SE 17 24 9 13 1015.9 1011.2 0.0
22/09:00am 28.8 25.7 11.5 34 10.2 SSE 19 24 10 13 1016.2 1011.5 0.0
22/08:30am 27.4 24.0 12.5 39 8.9 SE 22 30 12 16 1016.2 1011.5 0.0
22/08:00am 26.2 22.7 13.4 45 7.7 SSE 24 32 13 17 1015.9 1011.2 0.0
22/07:30am 26.4 22.3 11.3 39 8.8 SSE 24 32 13 17 1015.6 1010.9 0.0
22/07:00am 28.3 25.4 6.6 25 11.8 S 11 15 6 8 1015.3 1010.6 0.0
22/06:30am 27.2 25.0 6.1 26 11.3 SW 7 13 4 7 1015.2 1010.5 0.0
22/06:00am 26.0 23.0 5.8 27 10.7 NW 11 15 6 8 1014.6 1009.9 0.0
22/05:30am 25.9 21.1 4.4 25 11.1 W 19 30 10 16 1014.4 1009.7 0.0
22/05:00am 27.7 22.3 2.7 20 12.7 N 20 32 11 17 1012.9 1008.2 0.0
22/04:30am 27.8 22.5 2.9 20 12.7 N 20 28 11 15 1012.7 1008.0 0.0
22/04:00am 27.7 22.6 3.0 20 12.6 N 19 24 10 13 1012.4 1007.6 0.0
22/03:30am 27.9 22.8 3.1 20 12.7 N 19 28 10 15 1012.2 1007.4 0.0
22/03:00am 28.0 22.8 3.3 20 12.7 N 20 28 11 15 1012.1 1007.3 0.0
22/02:30am 27.8 22.6 3.6 21 12.5 N 20 28 11 15 1012.2 1007.4 0.0
22/02:00am 27.7 23.1 3.7 21 12.4 N 17 24 9 13 1012.2 1007.4 0.0
22/01:30am 27.2 23.1 4.4 23 11.9 N 15 20 8 11 1012.4 1007.6 0.0
22/01:00am 27.4 22.9 4.4 23 12.0 N 17 20 9 11 1012.6 1007.9 0.0
22/12:30am 28.0 23.1 4.3 22 12.4 N 19 24 10 13 1012.8 1008.1 0.0
22/12:00am 29.2 23.6 3.7 19 13.3 N 22 33 12 18 1013.0 1008.3 0.0
 
Date/Time
WST
Temp
°C
App
Temp
°C
Dew
Point
°C
Rel
Hum
%
Delta-T
°C
Wind Press
QNH
hPa
Press
MSL
hPa
Rain since
9am
mm
Dir  Spd
km/h
Gust
km/h
Spd
kts
Gust
kts
21/11:30pm 29.6 24.1 3.8 19 13.5 NNE 22 30 12 16 1013.1 1008.4 0.0
21/11:00pm 30.0 25.0 3.6 18 13.8 N 19 28 10 15 1013.3 1008.6 0.0
21/10:30pm 30.2 25.7 4.3 19 13.7 NNE 17 24 9 13 1013.4 1008.7 0.0
21/10:00pm 30.7 26.2 4.4 19 14.0 NNE 17 26 9 14 1013.3 1008.6 0.0
21/09:30pm 30.1 26.0 4.1 19 13.7 NNE 15 19 8 10 1013.2 1008.5 0.0
21/09:00pm 28.8 25.3 5.5 22 12.5 NNE 13 15 7 8 1013.1 1008.4 0.0
21/08:30pm 29.0 26.0 5.8 23 12.5 NNE 11 13 6 7 1012.9 1008.2 0.0
21/08:00pm 29.9 27.0 6.3 22 12.9 NE 11 11 6 6 1012.8 1008.1 0.0
21/07:30pm 30.1 27.1 6.1 22 13.1 NE 11 13 6 7 1012.6 1007.9 0.0
21/07:00pm 30.1 27.1 6.1 22 13.1 NNE 11 13 6 7 1012.3 1007.5 0.0
21/06:30pm 30.7 27.8 6.6 22 13.3 NNE 11 13 6 7 1012.1 1007.3 0.0
21/06:00pm 32.5 29.4 3.7 16 15.3 N 9 15 5 8 1011.8 1007.1 0.0
21/05:30pm 33.9 29.5 2.5 14 16.5 NNW 15 20 8 11 1011.6 1006.9 0.0
21/05:00pm 34.6 29.0 1.0 12 17.3 N 20 26 11 14 1011.3 1006.6 0.0
21/04:30pm 34.9 28.3 -0.4 10 17.8 NNW 24 39 13 21 1011.2 1006.5 0.0
21/04:00pm 35.2 29.9 -0.4 10 18.0 NNW 17 24 9 13 1011.2 1006.5 0.0
21/03:30pm 35.7 30.0 -0.4 10 18.3 WNW 19 32 10 17 1011.3 1006.6 0.0
21/03:00pm 35.3 29.9 -1.1 10 18.2 NW 17 30 9 16 1011.5 1006.8 0.0
21/02:30pm 35.4 30.0 -1.3 9 18.3 NNW 17 32 9 17 1011.8 1007.1 0.0
21/02:00pm 34.8 29.0 -0.2 11 17.7 NW 20 37 11 20 1012.2 1007.4 0.0
21/01:30pm 35.1 27.9 -1.7 9 18.2 NW 26 44 14 24 1012.4 1007.6 0.0
21/01:00pm 35.0 29.1 -1.1 10 18.0 N 20 32 11 17 1013.0 1008.3 0.0
21/12:30pm 34.7 28.8 -2.0 9 18.0 NNW 19 30 10 16 1013.4 1008.7 0.0
21/12:00pm 33.3 26.6 -1.3 11 17.0 N 24 43 13 23 1014.2 1009.5 0.0
21/11:30am 33.0 26.2 -2.1 10 17.0 N 24 37 13 20 1014.8 1010.1 0.0
21/11:00am 32.3 25.0 -2.8 10 16.7 N 26 37 14 20 1015.4 1010.7 0.0
21/10:30am 32.4 25.1 -3.0 10 16.8 N 26 39 14 21 1015.9 1011.2 0.0
21/10:00am 31.2 23.3 -5.2 9 16.5 N 28 39 15 21 1016.2 1011.5 0.0
21/09:30am 29.7 22.4 -6.2 9 15.8 N 24 39 13 21 1016.6 1011.9 0.0
21/09:00am 29.5 22.6 -6.3 9 15.7 NNE 22 32 12 17 1016.8 1012.1 0.0
21/08:30am 28.4 21.3 -4.2 11 14.7 N 24 37 13 20 1016.8 1012.1 0.0
21/08:00am 27.8 20.2 -6.0 10 14.7 NNE 26 37 14 20 1016.6 1011.9 0.0
21/07:30am 27.3 19.2 -7.1 10 14.6 NNE 28 41 15 22 1016.5 1011.8 0.0
21/07:00am 26.7 18.3 -5.5 11 14.0 NNE 30 39 16 21 1016.1 1011.4 0.0

Other Formats:

Comma delimited format used in spreadsheet applications
http://www.bom.gov.au/fwo/IDW60801/IDW60801.94461.axf

JavaScript Object Notation format (JSON) in row-major order
http://www.bom.gov.au/fwo/IDW60801/IDW60801.94461.json